Time;durP1;ratioP1;P1;durP2;ratioP2;P2;SDS_P1;SDS_P2;PMS_P1;PMS_P2;Temp;Humidity;BMP_temperature;BMP_pressure;BME280_temperature;BME280_humidity;BME280_pressure;Samples;Min_cycle;Max_cycle;Signal;HPM_P1;HPM_P2
2024/03/04 00:00:16;;;;;;;20.10;15.90;;;12.20;99.90;;;;;;4935443;29;20421;-64
2024/03/04 00:02:43;;;;;;;19.00;14.93;;;12.20;99.90;;;;;;4934695;29;20444;-63
2024/03/04 00:05:10;;;;;;;21.00;16.53;;;12.20;99.90;;;;;;4935349;29;20482;-64
2024/03/04 00:07:35;;;;;;;21.13;15.90;;;12.20;99.90;;;;;;4931480;29;20461;-62
2024/03/04 00:10:02;;;;;;;22.73;15.57;;;12.20;99.90;;;;;;4935505;29;20271;-64
2024/03/04 00:12:32;;;;;;;17.70;14.30;;;12.20;99.90;;;;;;4944189;29;20182;-64
2024/03/04 00:14:57;;;;;;;20.70;15.20;;;12.10;99.90;;;;;;4953371;29;21228;-63
2024/03/04 00:17:24;;;;;;;19.23;14.47;;;12.10;99.90;;;;;;4954544;29;20535;-64
2024/03/04 00:19:49;;;;;;;20.40;15.03;;;12.10;99.90;;;;;;4953553;28;20664;-63
2024/03/04 00:22:15;;;;;;;19.67;14.93;;;12.10;99.90;;;;;;4953370;29;20411;-64
2024/03/04 00:24:41;;;;;;;15.57;13.47;;;;;;;;;;4953266;29;20179;-63
2024/03/04 00:27:07;;;;;;;18.67;14.77;;;12.00;99.90;;;;;;4954011;29;20219;-63
2024/03/04 00:29:32;;;;;;;17.23;15.33;;;12.00;99.90;;;;;;4954046;29;20815;-64
2024/03/04 00:31:58;;;;;;;17.40;15.57;;;12.00;99.90;;;;;;4946627;29;20186;-64
2024/03/04 00:34:24;;;;;;;18.97;15.57;;;12.00;99.90;;;;;;4934996;29;20187;-64
2024/03/04 00:36:51;;;;;;;20.20;16.03;;;12.00;99.90;;;;;;4933942;29;20177;-64
2024/03/04 00:39:17;;;;;;;18.87;16.90;;;12.00;99.90;;;;;;4934935;29;20231;-64
2024/03/04 00:41:43;;;;;;;20.30;16.30;;;11.40;99.90;;;;;;4934161;29;20806;-63
2024/03/04 00:44:10;;;;;;;24.70;18.30;;;11.90;99.90;;;;;;4935012;29;20471;-64
2024/03/04 00:46:41;;;;;;;23.30;17.80;;;12.00;99.90;;;;;;4934798;29;20275;-62
2024/03/04 00:49:08;;;;;;;23.77;18.10;;;12.00;99.90;;;;;;4935029;29;20405;-64
2024/03/04 00:51:36;;;;;;;23.23;19.30;;;;;;;;;;4934881;29;20867;-64
2024/03/04 00:54:02;;;;;;;26.47;21.20;;;12.00;99.90;;;;;;4934503;29;20419;-64
2024/03/04 00:56:28;;;;;;;30.20;22.73;;;12.20;99.90;;;;;;4934583;29;20419;-64
2024/03/04 00:58:54;;;;;;;32.60;23.97;;;12.00;99.90;;;;;;4925364;29;20518;-64
2024/03/04 01:01:22;;;;;;;33.03;23.50;;;;;;;;;;4935147;29;20494;-64
2024/03/04 01:03:47;;;;;;;33.17;23.70;;;12.00;99.90;;;;;;4933959;29;20189;-64
2024/03/04 01:06:14;;;;;;;36.43;27.27;;;;;;;;;;4934367;29;20450;-64
2024/03/04 01:08:40;;;;;;;39.50;27.63;;;;;;;;;;4934017;29;20198;-62
2024/03/04 01:11:07;;;;;;;41.03;27.80;;;12.00;99.90;;;;;;4934518;29;20407;-64
2024/03/04 01:13:33;;;;;;;44.13;28.73;;;12.00;99.90;;;;;;4934436;29;20927;-64
2024/03/04 01:15:59;;;;;;;41.60;28.33;;;;;;;;;;4933682;29;20417;-64
2024/03/04 01:18:25;;;;;;;44.70;30.10;;;;;;;;;;4934626;29;20174;-64
2024/03/04 01:20:52;;;;;;;43.20;28.97;;;12.20;99.90;;;;;;4933577;29;20893;-63
2024/03/04 01:23:18;;;;;;;46.97;30.97;;;12.10;99.90;;;;;;4934605;29;20413;-64
2024/03/04 01:25:47;;;;;;;43.50;31.10;;;11.90;99.90;;;;;;4951812;29;20552;-63
2024/03/04 01:28:12;;;;;;;52.13;33.63;;;12.00;99.90;;;;;;4942805;29;20488;-64
2024/03/04 01:30:39;;;;;;;48.00;32.50;;;;;;;;;;4934527;29;20419;-64
2024/03/04 01:33:08;;;;;;;47.23;32.30;;;12.00;99.90;;;;;;4945582;29;20187;-64
2024/03/04 01:35:34;;;;;;;53.57;34.13;;;12.00;99.90;;;;;;4957285;29;20423;-64
2024/03/04 01:38:00;;;;;;;51.47;33.57;;;11.90;99.90;;;;;;4938218;29;21055;-64
2024/03/04 01:40:27;;;;;;;53.13;33.87;;;12.00;99.90;;;;;;4937789;29;20438;-64
2024/03/04 01:42:57;;;;;;;51.10;34.60;;;12.00;99.90;;;;;;4929416;29;20478;-63
2024/03/04 01:45:24;;;;;;;52.37;35.07;;;12.00;99.90;;;;;;4937909;29;20755;-64
2024/03/04 01:48:01;;;;;;;55.43;34.53;;;11.90;99.90;;;;;;4936842;29;20470;-63
2024/03/04 01:50:30;;;;;;;55.30;35.40;;;11.90;99.90;;;;;;4938209;29;20396;-64
2024/03/04 01:52:58;;;;;;;54.47;34.47;;;12.00;99.90;;;;;;4936985;29;20900;-64
2024/03/04 01:55:28;;;;;;;52.43;34.10;;;12.00;99.90;;;;;;4937752;29;20411;-64
2024/03/04 01:57:55;;;;;;;61.83;35.80;;;12.40;99.90;;;;;;4928826;29;20424;-63
2024/03/04 02:00:23;;;;;;;54.47;33.73;;;11.90;99.90;;;;;;4937474;29;20451;-63
2024/03/04 02:02:51;;;;;;;54.93;34.87;;;11.90;99.90;;;;;;4936837;29;20826;-63
2024/03/04 02:05:17;;;;;;;54.63;34.67;;;11.90;99.90;;;;;;4937929;29;20765;-64
2024/03/04 02:07:43;;;;;;;56.40;35.30;;;;;;;;;;4937143;29;20471;-62
2024/03/04 02:10:10;;;;;;;50.47;33.33;;;11.70;99.90;;;;;;4937260;29;20423;-64
2024/03/04 02:12:36;;;;;;;58.33;35.23;;;11.80;99.90;;;;;;4934159;29;20401;-64
2024/03/04 02:15:03;;;;;;;55.00;34.43;;;11.80;99.90;;;;;;4936082;29;20421;-63
2024/03/04 02:17:30;;;;;;;56.20;38.00;;;12.00;99.90;;;;;;4936989;29;20431;-63
2024/03/04 02:20:09;;;;;;;56.10;36.93;;;11.90;99.90;;;;;;4936389;29;20501;-63
2024/03/04 02:22:35;;;;;;;55.93;35.23;;;11.90;99.90;;;;;;4937092;29;20496;-64
2024/03/04 02:25:01;;;;;;;56.90;36.87;;;11.80;99.90;;;;;;4920537;29;20511;-63
2024/03/04 02:27:27;;;;;;;59.70;35.97;;;11.80;99.90;;;;;;4937413;29;20583;-63
2024/03/04 02:29:53;;;;;;;60.30;36.90;;;;;;;;;;4955507;29;20756;-63
2024/03/04 02:32:21;;;;;;;61.97;35.93;;;11.90;99.90;;;;;;4956182;29;20184;-64
2024/03/04 02:34:49;;;;;;;57.30;34.47;;;11.90;99.90;;;;;;4954994;29;20515;-63
2024/03/04 02:37:15;;;;;;;57.70;36.90;;;11.80;99.90;;;;;;4954922;29;20431;-63
2024/03/04 02:39:42;;;;;;;57.83;35.20;;;11.90;99.90;;;;;;4937142;29;20415;-64
2024/03/04 02:42:08;;;;;;;58.67;36.53;;;11.90;99.90;;;;;;4936040;29;20453;-63
2024/03/04 02:44:34;;;;;;;56.27;35.00;;;11.90;99.90;;;;;;4937074;29;20457;-63
2024/03/04 02:47:00;;;;;;;58.07;35.77;;;12.00;99.90;;;;;;4920577;29;20491;-63
2024/03/04 02:49:28;;;;;;;53.13;34.33;;;12.30;99.90;;;;;;4936793;29;20779;-64
2024/03/04 02:51:57;;;;;;;53.13;35.17;;;12.00;99.90;;;;;;4935621;29;20428;-63
2024/03/04 02:54:23;;;;;;;53.50;34.80;;;12.10;99.90;;;;;;4919646;29;20421;-63
2024/03/04 02:56:51;;;;;;;51.67;33.53;;;12.10;99.90;;;;;;4946672;29;20414;-62
2024/03/04 02:59:17;;;;;;;55.33;34.73;;;12.00;99.90;;;;;;4947585;29;20433;-63
2024/03/04 03:01:47;;;;;;;57.47;34.00;;;12.10;99.90;;;;;;4954479;29;20426;-64
2024/03/04 03:04:14;;;;;;;52.70;32.77;;;12.10;99.90;;;;;;4938141;29;20181;-63
2024/03/04 03:06:42;;;;;;;55.63;35.13;;;12.10;99.90;;;;;;4938014;29;20459;-64
2024/03/04 03:09:08;;;;;;;56.57;35.17;;;12.10;99.90;;;;;;4924128;29;20562;-63
2024/03/04 03:11:34;;;;;;;52.80;33.97;;;12.10;99.90;;;;;;4917061;29;20893;-64
2024/03/04 03:14:00;;;;;;;50.17;32.50;;;12.30;99.90;;;;;;4927637;29;20420;-63
2024/03/04 03:16:26;;;;;;;53.37;32.47;;;;;;;;;;4955507;29;20680;-64
2024/03/04 03:18:56;;;;;;;50.70;30.70;;;12.10;99.90;;;;;;4936540;29;20191;-63
2024/03/04 03:21:22;;;;;;;51.30;32.20;;;;;;;;;;4920203;29;20421;-64
2024/03/04 03:23:51;;;;;;;51.40;31.07;;;;;;;;;;4935883;29;20419;-61
2024/03/04 03:26:18;;;;;;;50.90;32.87;;;;;;;;;;4930729;29;20458;-64
2024/03/04 03:28:44;;;;;;;49.07;30.97;;;11.70;99.90;;;;;;4944983;29;20460;-64
2024/03/04 03:31:10;;;;;;;47.73;30.50;;;12.00;99.90;;;;;;4935480;29;21049;-64
2024/03/04 03:33:36;;;;;;;49.03;30.63;;;12.00;99.90;;;;;;4952831;29;20767;-64
2024/03/04 03:36:04;;;;;;;51.67;28.97;;;11.80;99.90;;;;;;4953759;29;20422;-63
2024/03/04 03:38:30;;;;;;;44.50;29.23;;;12.40;99.90;;;;;;4937433;29;20825;-64
2024/03/04 03:40:57;;;;;;;52.37;30.37;;;12.10;99.90;;;;;;4946653;29;20533;-63
2024/03/04 03:43:24;;;;;;;46.27;28.97;;;12.20;99.90;;;;;;4954657;29;20958;-64
2024/03/04 03:45:50;;;;;;;48.50;28.50;;;;;;;;;;4954229;29;20465;-62
2024/03/04 03:48:18;;;;;;;47.13;30.27;;;12.10;99.90;;;;;;4954805;29;20442;-64
2024/03/04 03:50:47;;;;;;;46.80;30.93;;;12.00;99.90;;;;;;4954330;29;20414;-64
2024/03/04 03:53:13;;;;;;;52.30;31.80;;;12.00;99.90;;;;;;4944672;29;20911;-63
2024/03/04 03:55:43;;;;;;;47.07;30.43;;;11.90;99.90;;;;;;4936270;29;20467;-64
2024/03/04 03:58:09;;;;;;;43.43;28.83;;;11.80;99.90;;;;;;4953330;29;20895;-63
2024/03/04 04:00:36;;;;;;;48.03;30.10;;;12.10;99.90;;;;;;4944345;29;20427;-63
2024/03/04 04:03:02;;;;;;;51.20;30.43;;;12.50;99.90;;;;;;4934432;29;20415;-63
2024/03/04 04:05:28;;;;;;;49.60;30.80;;;12.00;99.90;;;;;;4935302;29;20471;-64
2024/03/04 04:07:54;;;;;;;49.97;30.13;;;;;;;;;;4934356;29;20420;-63
2024/03/04 04:10:20;;;;;;;51.67;29.93;;;12.10;99.90;;;;;;4935049;29;20203;-63
2024/03/04 04:12:46;;;;;;;47.93;29.70;;;12.00;99.90;;;;;;4953703;29;20433;-64
2024/03/04 04:15:12;;;;;;;49.20;30.57;;;11.90;99.90;;;;;;4952933;29;20410;-63
2024/03/04 04:17:37;;;;;;;49.73;30.00;;;12.00;99.90;;;;;;4951233;29;20191;-63
2024/03/04 04:20:06;;;;;;;46.90;29.47;;;12.10;99.90;;;;;;4934223;29;20174;-64
2024/03/04 04:22:33;;;;;;;44.70;29.60;;;12.00;99.90;;;;;;4944263;29;20197;-64
2024/03/04 04:24:58;;;;;;;43.80;30.03;;;12.20;99.90;;;;;;4944521;29;20433;-63
2024/03/04 04:27:26;;;;;;;45.00;28.50;;;;;;;;;;4917717;29;20482;-63
2024/03/04 04:29:52;;;;;;;46.53;29.67;;;;;;;;;;4925816;29;20628;-62
2024/03/04 04:32:19;;;;;;;47.27;28.47;;;12.10;99.90;;;;;;4934436;29;20443;-64
2024/03/04 04:34:45;;;;;;;47.40;28.80;;;;;;;;;;4935027;29;20478;-63
2024/03/04 04:37:11;;;;;;;47.30;29.67;;;12.10;99.90;;;;;;4933948;29;20190;-64
2024/03/04 04:39:40;;;;;;;42.37;29.40;;;12.00;99.90;;;;;;4934346;29;20419;-64
2024/03/04 04:42:06;;;;;;;47.17;27.80;;;12.10;99.90;;;;;;4933957;29;20185;-64
2024/03/04 04:44:33;;;;;;;52.47;31.10;;;11.90;99.90;;;;;;4934938;29;20416;-64
2024/03/04 04:46:59;;;;;;;44.20;28.07;;;12.10;99.90;;;;;;4933876;29;20454;-64
2024/03/04 04:49:25;;;;;;;44.47;28.63;;;11.90;99.90;;;;;;4934982;29;20427;-64
2024/03/04 04:51:51;;;;;;;41.73;28.10;;;;;;;;;;4934812;29;20784;-62
2024/03/04 04:54:17;;;;;;;44.57;26.50;;;11.90;99.90;;;;;;4934136;29;20420;-64
2024/03/04 04:56:44;;;;;;;42.93;28.80;;;;;;;;;;4934758;29;20418;-64
2024/03/04 04:59:10;;;;;;;42.70;27.10;;;12.00;99.90;;;;;;4933823;29;20570;-64
2024/03/04 05:01:36;;;;;;;48.37;28.03;;;12.20;99.90;;;;;;4934298;29;20819;-64
2024/03/04 05:04:02;;;;;;;42.20;26.30;;;12.00;99.90;;;;;;4933472;29;20400;-63
2024/03/04 05:06:28;;;;;;;50.43;29.03;;;12.10;99.90;;;;;;4934836;29;20575;-64
2024/03/04 05:08:54;;;;;;;43.47;26.53;;;;;;;;;;4938317;29;20496;-61
2024/03/04 05:11:22;;;;;;;44.40;27.77;;;12.10;99.90;;;;;;4938217;29;20653;-64
2024/03/04 05:13:49;;;;;;;43.30;27.50;;;12.10;99.90;;;;;;4938259;29;20423;-64
2024/03/04 05:16:15;;;;;;;42.80;28.80;;;12.00;99.90;;;;;;4937372;29;20409;-64
2024/03/04 05:18:41;;;;;;;42.13;25.30;;;12.20;99.90;;;;;;4938484;29;20951;-64
2024/03/04 05:21:07;;;;;;;43.00;29.13;;;12.20;99.90;;;;;;4937558;29;20406;-64
2024/03/04 05:23:33;;;;;;;42.77;26.90;;;12.20;99.90;;;;;;4938364;29;20408;-64
2024/03/04 05:25:59;;;;;;;42.27;27.43;;;12.30;99.90;;;;;;4937241;29;20462;-63
2024/03/04 05:28:25;;;;;;;40.70;24.20;;;12.20;99.90;;;;;;4937783;29;20459;-64
2024/03/04 05:30:52;;;;;;;42.97;26.03;;;12.00;99.90;;;;;;4937913;29;20974;-64
2024/03/04 05:33:19;;;;;;;39.43;24.50;;;12.10;99.90;;;;;;4937236;29;20448;-64
2024/03/04 05:35:45;;;;;;;42.87;26.10;;;12.10;99.90;;;;;;4937649;29;20458;-63
2024/03/04 05:38:11;;;;;;;40.70;25.67;;;12.10;99.90;;;;;;4930870;29;20929;-64
2024/03/04 05:40:37;;;;;;;44.07;25.83;;;;;;;;;;4937814;29;20417;-64
2024/03/04 05:43:03;;;;;;;43.10;26.30;;;12.10;99.90;;;;;;4936861;29;20186;-64
2024/03/04 05:45:29;;;;;;;40.80;25.80;;;12.00;99.90;;;;;;4937840;29;20414;-64
2024/03/04 05:47:56;;;;;;;50.37;28.77;;;;;;;;;;4937242;29;20505;-62
2024/03/04 05:50:21;;;;;;;46.33;28.23;;;12.00;99.90;;;;;;4937256;29;20419;-64
2024/03/04 05:52:47;;;;;;;47.83;27.80;;;11.80;99.90;;;;;;4937730;29;20411;-64
2024/03/04 05:55:13;;;;;;;49.60;28.80;;;12.00;99.90;;;;;;4936947;29;20488;-64
2024/03/04 05:57:40;;;;;;;44.73;27.27;;;12.00;99.90;;;;;;4937340;29;20177;-64
2024/03/04 06:00:16;;;;;;;47.60;25.50;;;12.10;99.90;;;;;;4940442;29;20953;-63
2024/03/04 06:02:42;;;;;;;48.10;25.97;;;12.00;99.90;;;;;;4937255;29;20390;-64
2024/03/04 06:05:10;;;;;;;46.50;26.77;;;12.10;99.90;;;;;;4929797;29;20419;-64
2024/03/04 06:07:37;;;;;;;41.03;26.73;;;12.00;99.90;;;;;;4937198;29;21050;-64
2024/03/04 06:10:03;;;;;;;40.77;26.37;;;11.50;99.90;;;;;;4936311;29;20466;-63
2024/03/04 06:12:29;;;;;;;44.80;25.93;;;11.90;99.90;;;;;;4937499;29;20453;-64
2024/03/04 06:14:55;;;;;;;41.90;25.23;;;11.90;99.90;;;;;;4936859;29;20818;-64
2024/03/04 06:17:21;;;;;;;43.40;27.57;;;;;;;;;;4936471;29;20450;-64
2024/03/04 06:19:47;;;;;;;44.07;24.67;;;12.40;99.90;;;;;;4935705;29;20194;-64
2024/03/04 06:22:13;;;;;;;40.77;26.00;;;12.10;99.90;;;;;;4935565;29;20921;-64
2024/03/04 06:24:39;;;;;;;41.63;25.93;;;11.80;99.90;;;;;;4937006;29;20420;-62
2024/03/04 06:27:08;;;;;;;41.33;25.20;;;11.80;99.90;;;;;;4924496;29;20906;-62
2024/03/04 06:29:34;;;;;;;43.90;26.40;;;11.90;99.90;;;;;;4956015;29;20514;-61
2024/03/04 06:32:04;;;;;;;47.50;25.17;;;11.90;99.90;;;;;;4943289;29;20456;-62
2024/03/04 06:34:30;;;;;;;40.43;25.10;;;12.10;99.90;;;;;;4936713;29;20418;-65
2024/03/04 06:36:57;;;;;;;48.07;25.70;;;11.80;99.90;;;;;;4937782;29;20423;-65
2024/03/04 06:39:24;;;;;;;47.90;25.73;;;12.00;99.90;;;;;;4919030;29;20447;-65
2024/03/04 06:41:52;;;;;;;44.17;24.87;;;12.10;99.90;;;;;;4936777;29;20408;-66
2024/03/04 06:44:18;;;;;;;42.40;26.57;;;11.90;99.90;;;;;;4918964;29;20426;-66
2024/03/04 06:46:44;;;;;;;36.73;22.47;;;11.90;99.90;;;;;;4936693;29;20458;-66
2024/03/04 06:49:11;;;;;;;36.53;23.20;;;12.10;99.90;;;;;;4941366;29;20422;-65
2024/03/04 06:51:37;;;;;;;36.83;24.13;;;12.00;99.90;;;;;;4955867;29;20404;-66
2024/03/04 06:54:04;;;;;;;37.37;22.80;;;12.20;99.90;;;;;;4955058;29;20491;-64
2024/03/04 06:56:30;;;;;;;38.83;21.67;;;11.80;99.90;;;;;;4955935;29;20508;-65
2024/03/04 06:59:00;;;;;;;34.80;21.37;;;12.10;99.90;;;;;;4955730;29;20418;-66
2024/03/04 07:01:27;;;;;;;35.83;21.77;;;13.10;99.90;;;;;;4945591;29;20411;-65
2024/03/04 07:03:53;;;;;;;34.17;22.10;;;12.10;99.90;;;;;;4936470;29;20770;-66
2024/03/04 07:06:19;;;;;;;30.70;21.80;;;12.10;99.90;;;;;;4935272;29;21294;-65
2024/03/04 07:08:45;;;;;;;31.83;21.17;;;12.00;99.90;;;;;;4954860;29;20462;-65
2024/03/04 07:11:12;;;;;;;32.77;19.20;;;12.00;99.90;;;;;;4954754;28;20793;-65
2024/03/04 07:13:38;;;;;;;38.60;22.33;;;12.10;99.90;;;;;;4955474;29;20492;-65
2024/03/04 07:16:07;;;;;;;35.37;21.70;;;12.10;99.90;;;;;;4954388;29;20817;-65
2024/03/04 07:18:36;;;;;;;36.93;21.87;;;11.80;99.90;;;;;;4955518;29;20445;-65
2024/03/04 07:21:02;;;;;;;33.87;20.40;;;11.90;99.90;;;;;;4939866;29;20420;-62
2024/03/04 07:23:28;;;;;;;37.57;22.40;;;12.10;99.90;;;;;;4936225;29;20406;-65
2024/03/04 07:25:55;;;;;;;35.10;21.50;;;;;;;;;;4935378;29;20551;-65
2024/03/04 07:28:20;;;;;;;33.37;21.47;;;12.00;99.90;;;;;;4934764;29;20228;-65
2024/03/04 07:30:51;;;;;;;37.47;22.17;;;12.00;99.90;;;;;;4935323;29;20426;-64
2024/03/04 07:33:17;;;;;;;36.37;21.67;;;11.90;99.90;;;;;;4934906;29;20180;-65
2024/03/04 07:35:43;;;;;;;34.77;20.37;;;;;;;;;;4935647;29;20419;-65
2024/03/04 07:38:10;;;;;;;34.60;21.40;;;12.30;99.90;;;;;;4935231;29;20401;-65
2024/03/04 07:40:42;;;;;;;33.60;20.87;;;12.20;99.90;;;;;;4935980;29;20399;-66
2024/03/04 07:43:08;;;;;;;38.27;23.13;;;11.90;99.90;;;;;;4934900;29;20846;-65
2024/03/04 07:45:34;;;;;;;35.10;20.23;;;;;;;;;;4935526;29;20183;-65
2024/03/04 07:48:00;;;;;;;37.17;22.20;;;12.00;99.90;;;;;;4918455;29;20219;-65
2024/03/04 07:50:26;;;;;;;37.40;21.30;;;11.60;99.90;;;;;;4934493;29;20454;-65
2024/03/04 07:52:51;;;;;;;36.53;20.93;;;11.40;99.90;;;;;;4935460;29;20171;-65
2024/03/04 07:55:17;;;;;;;34.47;20.90;;;12.20;99.90;;;;;;4917166;29;20233;-64
2024/03/04 07:57:43;;;;;;;38.27;23.30;;;12.10;99.90;;;;;;4934944;29;20176;-63
2024/03/04 08:00:10;;;;;;;40.33;21.60;;;12.20;99.90;;;;;;4934609;29;20277;-65
2024/03/04 08:02:37;;;;;;;38.23;22.17;;;11.90;99.90;;;;;;4935429;29;20187;-65
2024/03/04 08:05:05;;;;;;;36.13;23.00;;;12.00;99.90;;;;;;4927408;29;20520;-62
2024/03/04 08:07:31;;;;;;;37.20;20.47;;;12.50;99.90;;;;;;4934505;29;20472;-66
2024/03/04 08:09:57;;;;;;;35.17;22.73;;;12.00;99.90;;;;;;4935339;29;20412;-66
2024/03/04 08:12:23;;;;;;;40.67;21.50;;;;;;;;;;4934161;29;20975;-65
2024/03/04 08:14:49;;;;;;;38.03;21.90;;;11.80;99.90;;;;;;4935084;29;20417;-66
2024/03/04 08:17:17;;;;;;;34.60;20.60;;;;;;;;;;4917244;29;20425;-64
2024/03/04 08:19:44;;;;;;;36.13;22.80;;;12.10;99.90;;;;;;4935237;29;20531;-66
2024/03/04 08:22:10;;;;;;;36.07;22.83;;;12.60;99.90;;;;;;4934450;29;20405;-62
2024/03/04 08:24:35;;;;;;;40.70;23.93;;;12.90;99.90;;;;;;4934233;29;20428;-63
2024/03/04 08:27:01;;;;;;;40.40;22.97;;;13.20;99.90;;;;;;4934499;29;20225;-64
2024/03/04 08:29:27;;;;;;;42.30;24.97;;;13.60;99.90;;;;;;4933620;29;20435;-63
2024/03/04 08:31:53;;;;;;;35.50;22.73;;;13.80;99.90;;;;;;4933070;29;20476;-63
2024/03/04 08:34:19;;;;;;;39.03;26.10;;;14.10;99.90;;;;;;4932417;29;20250;-63
2024/03/04 08:36:45;;;;;;;33.90;22.63;;;14.40;99.90;;;;;;4933634;29;20544;-63
2024/03/04 08:39:10;;;;;;;38.83;23.00;;;14.60;99.90;;;;;;4933175;29;20411;-63
2024/03/04 08:41:45;;;;;;;34.93;23.60;;;14.80;99.90;;;;;;4933118;29;20452;-64
2024/03/04 08:44:11;;;;;;;37.67;24.07;;;15.00;99.90;;;;;;4933220;29;20266;-63
2024/03/04 08:46:37;;;;;;;42.80;24.00;;;15.10;99.90;;;;;;4934613;29;20468;-63
2024/03/04 08:49:04;;;;;;;34.27;23.53;;;15.30;99.90;;;;;;4934950;29;20469;-64
2024/03/04 08:51:30;;;;;;;32.73;21.00;;;15.40;99.90;;;;;;4934219;29;20199;-63
2024/03/04 08:53:56;;;;;;;36.07;21.20;;;15.50;99.90;;;;;;4934870;29;20412;-63
2024/03/04 08:56:22;;;;;;;32.47;22.20;;;15.60;99.90;;;;;;4934130;29;20465;-63
2024/03/04 08:58:48;;;;;;;37.33;22.70;;;15.60;99.90;;;;;;4934985;29;20200;-63
2024/03/04 09:01:14;;;;;;;33.43;21.67;;;15.70;99.90;;;;;;4933987;29;20192;-63
2024/03/04 09:03:43;;;;;;;37.20;23.00;;;15.80;99.90;;;;;;4917363;29;20409;-64
2024/03/04 09:06:18;;;;;;;33.07;22.73;;;15.80;99.90;;;;;;4933201;29;20475;-63
2024/03/04 09:08:44;;;;;;;34.30;22.60;;;15.80;99.90;;;;;;4933358;29;20503;-63
2024/03/04 09:11:10;;;;;;;35.30;24.20;;;15.90;99.90;;;;;;4933329;29;20574;-70
2024/03/04 09:13:36;;;;;;;33.97;23.47;;;15.90;99.90;;;;;;4918044;29;20409;-67
2024/03/04 09:16:03;;;;;;;35.50;23.93;;;15.90;99.90;;;;;;4934702;29;20181;-67
2024/03/04 09:18:29;;;;;;;37.20;23.73;;;15.90;99.90;;;;;;4933897;29;21036;-67
2024/03/04 09:20:54;;;;;;;34.50;23.13;;;16.00;99.90;;;;;;4934532;29;20470;-67
2024/03/04 09:23:20;;;;;;;36.00;23.20;;;16.00;99.90;;;;;;4933971;29;20174;-66
2024/03/04 09:25:46;;;;;;;32.27;23.27;;;16.10;99.90;;;;;;4934632;29;20901;-67
2024/03/04 09:28:14;;;;;;;32.47;23.07;;;16.20;99.90;;;;;;4933728;29;20280;-66
2024/03/04 09:30:40;;;;;;;33.70;23.07;;;16.20;99.90;;;;;;4934632;29;20645;-66
2024/03/04 09:33:07;;;;;;;39.50;24.90;;;16.20;99.90;;;;;;4934426;29;20413;-66
2024/03/04 09:35:33;;;;;;;46.90;28.33;;;16.10;99.90;;;;;;4933718;29;20645;-66
2024/03/04 09:37:59;;;;;;;36.63;23.60;;;15.90;99.90;;;;;;4917409;29;20519;-66
2024/03/04 09:40:25;;;;;;;36.70;25.00;;;15.90;99.90;;;;;;4933922;29;20930;-66
2024/03/04 09:42:51;;;;;;;31.87;23.00;;;15.90;99.90;;;;;;4934389;29;20621;-66
2024/03/04 09:45:21;;;;;;;30.30;21.13;;;15.80;99.90;;;;;;4933335;29;20504;-66
2024/03/04 09:47:55;;;;;;;40.80;26.33;;;15.80;99.90;;;;;;4933436;29;20944;-68
2024/03/04 09:50:24;;;;;;;30.00;21.70;;;15.80;99.90;;;;;;4932853;29;20423;-63
2024/03/04 09:52:53;;;;;;;135.87;76.97;;;15.90;99.90;;;;;;4933806;29;20944;-64
2024/03/04 09:55:19;;;;;;;58.40;37.53;;;15.60;99.90;;;;;;4935942;29;20413;-63
2024/03/04 09:57:46;;;;;;;193.00;106.90;;;15.40;99.90;;;;;;4920029;29;20444;-63
2024/03/04 10:00:16;;;;;;;99.20;63.33;;;15.10;99.90;;;;;;4936941;29;20816;-63
2024/03/04 10:02:43;;;;;;;74.77;42.13;;;14.80;99.90;;;;;;4937436;29;20491;-63
2024/03/04 10:05:13;;;;;;;37.23;24.70;;;14.60;99.90;;;;;;4936247;29;20424;-63
2024/03/04 10:07:40;;;;;;;39.40;23.27;;;14.40;99.90;;;;;;4936705;29;20455;-63
2024/03/04 10:10:08;;;;;;;46.33;23.13;;;14.20;99.90;;;;;;4937419;29;20423;-63
2024/03/04 10:12:34;;;;;;;39.53;23.40;;;14.00;99.90;;;;;;4936347;29;20418;-62
2024/03/04 10:15:03;;;;;;;40.93;24.10;;;13.80;99.90;;;;;;4937640;29;20914;-63
2024/03/04 10:17:29;;;;;;;36.90;23.03;;;13.50;99.90;;;;;;4936603;29;20432;-63
2024/03/04 10:20:02;;;;;;;36.70;22.63;;;13.50;99.90;;;;;;4941099;29;20454;-63
2024/03/04 10:22:41;;;;;;;37.00;22.07;;;13.40;99.90;;;;;;4939700;29;20418;-62
2024/03/04 10:25:08;;;;;;;40.83;22.50;;;13.30;99.90;;;;;;4936761;29;20485;-63
2024/03/04 10:27:39;;;;;;;35.63;23.33;;;13.20;99.90;;;;;;4936651;29;20511;-63
2024/03/04 10:30:11;;;;;;;40.50;23.67;;;13.10;99.90;;;;;;4936210;29;20429;-66
2024/03/04 10:32:48;;;;;;;38.43;24.00;;;13.00;99.90;;;;;;4937028;29;20421;-66
2024/03/04 10:35:15;;;;;;;37.30;24.17;;;12.90;99.90;;;;;;4936267;29;20749;-65
2024/03/04 10:37:41;;;;;;;39.30;24.50;;;12.80;99.90;;;;;;4936956;29;20456;-65
2024/03/04 10:40:11;;;;;;;39.17;25.43;;;12.70;99.90;;;;;;4936906;29;20487;-65
2024/03/04 10:42:42;;;;;;;43.20;25.47;;;12.70;99.90;;;;;;4919358;29;20408;-65
2024/03/04 10:45:09;;;;;;;38.93;22.50;;;12.70;99.90;;;;;;4936493;29;20441;-65
2024/03/04 10:47:39;;;;;;;40.77;23.40;;;12.60;99.90;;;;;;4923216;29;20487;-65
2024/03/04 10:50:07;;;;;;;34.10;24.03;;;12.60;99.90;;;;;;4924528;29;20779;-66
2024/03/04 10:52:33;;;;;;;867.87;480.43;;;12.60;99.90;;;;;;4935997;29;20498;-65
2024/03/04 10:54:59;;;;;;;189.53;112.87;;;12.50;99.90;;;;;;4936360;29;20886;-65
2024/03/04 10:57:26;;;;;;;40.90;25.70;;;12.50;99.90;;;;;;4935098;29;20958;-65
2024/03/04 10:59:56;;;;;;;29.80;20.37;;;12.50;99.90;;;;;;4935756;29;20188;-65
2024/03/04 11:02:59;;;;;;;37.10;22.23;;;12.50;99.90;;;;;;4935581;29;20498;-65
2024/03/04 11:05:32;;;;;;;32.53;20.93;;;12.40;99.90;;;;;;4935028;29;20439;-67
2024/03/04 11:08:17;;;;;;;30.90;21.17;;;12.40;99.90;;;;;;4936399;29;20504;-68
2024/03/04 11:10:49;;;;;;;33.40;22.33;;;12.30;99.90;;;;;;4936493;29;20411;-67
2024/03/04 11:13:27;;;;;;;29.80;20.53;;;12.30;99.90;;;;;;4935022;29;20417;-63
2024/03/04 11:15:58;;;;;;;34.63;20.93;;;11.90;99.90;;;;;;4928555;29;20798;-68
2024/03/04 11:18:45;;;;;;;29.67;21.33;;;12.20;99.90;;;;;;4935044;29;20820;-68
2024/03/04 11:21:11;;;;;;;31.27;20.10;;;12.20;99.90;;;;;;4925717;29;20878;-68
2024/03/04 11:23:37;;;;;;;37.30;20.70;;;12.20;99.90;;;;;;4934928;29;20423;-68
2024/03/04 11:26:03;;;;;;;38.60;21.37;;;12.20;99.90;;;;;;4935369;29;20459;-66
2024/03/04 11:28:31;;;;;;;36.20;20.70;;;11.90;99.90;;;;;;4934223;29;20530;-67
2024/03/04 11:30:57;;;;;;;35.43;20.43;;;11.90;99.90;;;;;;4935191;29;20443;-68
2024/03/04 11:33:38;;;;;;;36.23;22.50;;;12.10;99.90;;;;;;4935406;29;20419;-67
2024/03/04 11:36:05;;;;;;;37.23;22.37;;;12.10;99.90;;;;;;4935411;29;20267;-68
2024/03/04 11:38:47;;;;;;;33.33;22.50;;;12.00;99.90;;;;;;4927931;29;20813;-68
2024/03/04 11:41:37;;;;;;;38.07;25.50;;;12.20;99.90;;;;;;4934869;29;20819;-68
2024/03/04 11:44:03;;;;;;;36.30;20.93;;;12.30;99.90;;;;;;4935379;29;20520;-66
2024/03/04 11:46:33;;;;;;;38.77;23.17;;;12.00;99.90;;;;;;4934560;29;20574;-66
2024/03/04 11:49:23;;;;;;;35.40;22.40;;;11.80;99.90;;;;;;4934705;29;20822;-67
2024/03/04 11:52:10;;;;;;;38.27;23.40;;;12.10;99.90;;;;;;4929887;29;20428;-67
2024/03/04 11:54:35;;;;;;;31.00;19.60;;;12.00;99.90;;;;;;4934561;29;21117;-66
2024/03/04 11:57:03;;;;;;;139.73;79.00;;;12.10;99.90;;;;;;4936170;29;20465;-66
2024/03/04 11:59:30;;;;;;;60.60;35.90;;;12.60;99.90;;;;;;4940081;29;20186;-62
2024/03/04 12:01:56;;;;;;;42.23;23.40;;;12.10;99.90;;;;;;4926272;29;20414;-63
2024/03/04 12:04:26;;;;;;;40.80;25.10;;;12.00;99.90;;;;;;4934667;29;20413;-67
2024/03/04 12:06:53;;;;;;;41.03;23.70;;;12.00;99.90;;;;;;4927697;29;20456;-62
2024/03/04 12:09:21;;;;;;;42.47;25.10;;;12.00;99.90;;;;;;4934951;29;20506;-62
2024/03/04 12:11:47;;;;;;;45.57;25.93;;;12.00;99.90;;;;;;4949964;29;20422;-65
2024/03/04 12:14:13;;;;;;;51.90;27.60;;;11.90;99.90;;;;;;4934417;29;20813;-63
2024/03/04 12:16:39;;;;;;;44.87;24.10;;;12.10;99.90;;;;;;4939089;28;20426;-62
2024/03/04 12:19:05;;;;;;;45.23;24.60;;;;;;;;;;4925164;29;20237;-65
2024/03/04 12:21:32;;;;;;;47.40;23.53;;;12.00;99.90;;;;;;4933613;29;20199;-63
2024/03/04 12:23:58;;;;;;;45.03;26.37;;;12.00;99.90;;;;;;4934801;29;20505;-64
2024/03/04 12:26:24;;;;;;;135.40;75.13;;;12.10;99.90;;;;;;4933728;29;20597;-63
2024/03/04 12:29:04;;;;;;;127.73;64.00;;;12.10;99.90;;;;;;4933887;29;20256;-63
2024/03/04 12:31:30;;;;;;;192.23;108.83;;;12.30;99.90;;;;;;4934299;29;20411;-63
2024/03/04 12:33:56;;;;;;;49.93;30.07;;;12.10;99.90;;;;;;4934948;29;20518;-63
2024/03/04 12:36:23;;;;;;;45.63;27.93;;;12.00;99.90;;;;;;4934188;29;20442;-63